createdAt,value
2019-02-19T00:00:31.008Z,1.63
2019-02-19T00:03:06.108Z,1.62
2019-02-19T00:05:40.803Z,1.47
2019-02-19T00:08:17.023Z,2.00
2019-02-19T00:10:51.973Z,2.25
2019-02-19T00:13:27.086Z,2.04
2019-02-19T00:16:02.073Z,2.31
2019-02-19T00:18:37.697Z,1.63
2019-02-19T00:21:13.316Z,1.87
2019-02-19T00:23:48.307Z,2.36
2019-02-19T00:26:23.064Z,1.97
2019-02-19T00:28:58.315Z,2.28
2019-02-19T00:31:32.979Z,2.29
2019-02-19T00:34:07.776Z,2.18
2019-02-19T00:36:42.326Z,1.85
2019-02-19T00:39:16.947Z,2.21
2019-02-19T00:41:52.529Z,2.48
2019-02-19T00:44:29.292Z,2.45
2019-02-19T00:47:03.826Z,1.67
2019-02-19T00:49:38.639Z,1.83
2019-02-19T00:52:13.315Z,2.10
2019-02-19T00:54:48.338Z,2.20
2019-02-19T00:57:26.649Z,2.24
2019-02-19T01:00:01.330Z,1.96
2019-02-19T01:02:36.084Z,1.96
2019-02-19T01:05:11.327Z,1.19
2019-02-19T01:07:46.635Z,1.57
2019-02-19T01:10:20.867Z,1.46
2019-02-19T01:12:55.554Z,1.79
2019-02-19T01:15:31.331Z,1.69
2019-02-19T01:18:06.556Z,1.69
2019-02-19T01:20:41.589Z,1.77
2019-02-19T01:23:16.552Z,1.78
2019-02-19T01:25:51.318Z,2.14
2019-02-19T01:28:26.569Z,2.14
2019-02-19T01:31:22.185Z,1.80
2019-02-19T01:33:56.739Z,1.56
2019-02-19T01:36:30.467Z,1.44
2019-02-19T01:39:05.777Z,0.79
2019-02-19T01:41:41.859Z,1.39
2019-02-19T01:44:16.303Z,1.78
2019-02-19T01:46:51.008Z,1.86
2019-02-19T01:49:25.752Z,1.31
2019-02-19T01:52:00.638Z,1.69
2019-02-19T01:54:35.391Z,0.85
2019-02-19T01:57:10.220Z,0.85
2019-02-19T01:59:45.020Z,0.44
2019-02-19T02:02:19.992Z,0.77
2019-02-19T02:04:54.891Z,0.91
2019-02-19T02:07:29.968Z,0.72
2019-02-19T02:10:05.511Z,0.94
2019-02-19T02:12:40.548Z,1.25
2019-02-19T02:15:16.519Z,0.99
2019-02-19T02:17:51.720Z,0.69
2019-02-19T02:20:25.927Z,0.69
2019-02-19T02:23:01.012Z,1.19
2019-02-19T02:25:35.809Z,1.10
2019-02-19T02:28:10.641Z,1.32
2019-02-19T02:30:44.959Z,1.35
2019-02-19T02:33:19.781Z,1.68
2019-02-19T02:35:56.506Z,1.46
2019-02-19T02:38:31.319Z,0.94
2019-02-19T02:41:05.668Z,0.94
2019-02-19T02:43:39.984Z,1.22
2019-02-19T02:46:14.965Z,1.13
2019-02-19T02:48:50.319Z,1.41
2019-02-19T02:51:25.519Z,0.91
2019-02-19T02:53:59.541Z,1.21
2019-02-19T02:56:34.226Z,1.32
2019-02-19T02:59:10.044Z,1.10
2019-02-19T03:01:44.826Z,0.62
2019-02-19T03:04:19.851Z,1.15
2019-02-19T03:07:01.880Z,1.21
2019-02-19T03:09:36.791Z,0.63
2019-02-19T03:12:11.544Z,0.47
2019-02-19T03:14:46.514Z,0.21
2019-02-19T03:17:21.320Z,0.37
2019-02-19T03:19:56.061Z,0.37
2019-02-19T03:22:30.997Z,0.73
2019-02-19T03:25:06.121Z,-0.02
2019-02-19T03:27:40.932Z,0.56
2019-02-19T03:30:16.053Z,0.15
2019-02-19T03:32:51.412Z,0.76
2019-02-19T03:35:26.349Z,0.69
2019-02-19T03:38:01.482Z,0.70
2019-02-19T03:40:36.126Z,0.25
2019-02-19T03:43:11.159Z,0.25
2019-02-19T03:45:45.791Z,0.05
2019-02-19T03:48:21.631Z,0.37
2019-02-19T03:50:55.609Z,0.53
2019-02-19T03:53:29.720Z,-0.15
2019-02-19T03:56:03.752Z,-0.02
2019-02-19T03:58:38.321Z,-0.01
2019-02-19T04:01:13.165Z,-0.20
2019-02-19T04:03:48.044Z,-0.34
2019-02-19T04:06:22.787Z,-0.24
2019-02-19T04:08:57.928Z,-0.10
2019-02-19T04:11:33.166Z,-0.15
2019-02-19T04:14:07.964Z,0.20
2019-02-19T04:16:42.969Z,0.14
2019-02-19T04:19:18.173Z,0.20
2019-02-19T04:21:53.978Z,0.45
2019-02-19T04:24:29.810Z,0.49
2019-02-19T04:27:04.899Z,0.43
2019-02-19T04:29:39.965Z,0.56
2019-02-19T04:32:15.317Z,0.18
2019-02-19T04:34:50.485Z,-0.09
2019-02-19T04:37:25.630Z,0.43
2019-02-19T04:39:59.716Z,0.43
2019-02-19T04:42:33.608Z,-0.09
2019-02-19T04:45:08.125Z,0.05
2019-02-19T04:47:43.486Z,0.19
2019-02-19T04:50:19.772Z,0.53
2019-02-19T04:52:54.838Z,0.53
2019-02-19T04:55:29.636Z,0.42
2019-02-19T04:58:03.548Z,0.08
2019-02-19T05:00:38.313Z,-0.17
2019-02-19T05:03:12.922Z,-0.17
2019-02-19T05:05:47.796Z,-0.16
2019-02-19T05:08:22.684Z,0.05
2019-02-19T05:10:57.620Z,0.06
2019-02-19T05:13:32.524Z,-0.19
2019-02-19T05:16:07.559Z,-0.01
2019-02-19T05:18:41.627Z,-0.01
2019-02-19T05:21:16.668Z,0.28
2019-02-19T05:23:51.587Z,0.85
2019-02-19T05:26:25.707Z,0.85
2019-02-19T05:29:00.593Z,0.24
2019-02-19T05:31:35.751Z,0.55
2019-02-19T05:34:10.621Z,0.55
2019-02-19T05:36:45.311Z,0.99
2019-02-19T05:39:21.311Z,0.99
2019-02-19T05:41:56.107Z,0.54
2019-02-19T05:44:30.977Z,0.33
2019-02-19T05:47:05.849Z,0.65
2019-02-19T05:49:41.020Z,1.24
2019-02-19T05:52:15.940Z,1.26
2019-02-19T05:54:50.783Z,0.47
2019-02-19T05:57:25.684Z,0.63
2019-02-19T05:59:59.999Z,0.96
2019-02-19T06:02:34.748Z,0.81
2019-02-19T06:05:10.310Z,0.96
2019-02-19T06:07:45.029Z,1.24
2019-02-19T06:10:20.133Z,1.24
2019-02-19T06:12:54.639Z,0.15
2019-02-19T06:15:28.454Z,-0.03
2019-02-19T06:18:02.827Z,0.57
2019-02-19T06:20:37.118Z,0.43
2019-02-19T06:23:11.665Z,0.57
2019-02-19T06:25:45.466Z,0.76
2019-02-19T06:28:20.176Z,0.93
2019-02-19T06:30:55.083Z,1.12
2019-02-19T06:33:29.521Z,0.80
2019-02-19T06:36:04.006Z,0.75
2019-02-19T06:38:38.342Z,0.75
2019-02-19T06:41:12.847Z,1.14
2019-02-19T06:43:48.279Z,1.24
2019-02-19T06:46:22.845Z,1.51
2019-02-19T06:48:57.344Z,1.97
2019-02-19T06:51:31.800Z,1.99
2019-02-19T06:54:06.492Z,2.06
2019-02-19T06:56:41.099Z,2.46
2019-02-19T06:59:15.523Z,3.08
2019-02-19T07:02:24.655Z,2.96
2019-02-19T07:05:02.166Z,3.13
2019-02-19T07:07:37.164Z,3.07
2019-02-19T07:10:11.803Z,3.53
2019-02-19T07:12:46.527Z,3.90
2019-02-19T07:15:20.889Z,4.12
2019-02-19T07:17:55.347Z,4.12
2019-02-19T07:20:29.667Z,4.77
2019-02-19T07:23:04.330Z,4.96
2019-02-19T07:25:38.629Z,5.40
2019-02-19T07:28:12.279Z,5.65
2019-02-19T07:30:46.645Z,5.66
2019-02-19T07:33:20.441Z,5.21
2019-02-19T07:35:54.810Z,5.53
2019-02-19T07:38:29.412Z,5.82
2019-02-19T07:41:05.463Z,5.79
2019-02-19T07:43:39.118Z,5.61
2019-02-19T07:46:13.691Z,5.52
2019-02-19T07:48:48.101Z,5.48
2019-02-19T07:51:22.647Z,5.43
2019-02-19T07:53:56.645Z,5.64
2019-02-19T07:56:30.976Z,5.47
2019-02-19T07:59:05.524Z,5.47
2019-02-19T08:01:40.045Z,5.57
2019-02-19T08:04:14.798Z,5.57
2019-02-19T08:06:49.517Z,5.54
2019-02-19T08:09:24.069Z,5.73
2019-02-19T08:11:58.576Z,5.83
2019-02-19T08:14:33.059Z,6.05
2019-02-19T08:17:07.675Z,6.05
2019-02-19T08:19:43.158Z,6.23
2019-02-19T08:22:17.928Z,6.41
2019-02-19T08:24:52.545Z,6.73
2019-02-19T08:27:26.958Z,8.47
2019-02-19T08:30:02.561Z,8.47
2019-02-19T08:32:42.495Z,9.32
2019-02-19T08:35:16.280Z,9.60
2019-02-19T08:37:53.045Z,9.55
2019-02-19T08:40:27.570Z,8.77
2019-02-19T08:43:02.137Z,8.99
2019-02-19T08:45:36.660Z,8.99
2019-02-19T08:48:10.454Z,9.51
2019-02-19T08:50:44.958Z,10.47
2019-02-19T08:53:19.526Z,10.47
2019-02-19T08:55:53.441Z,10.53
2019-02-19T08:58:28.043Z,10.85
2019-02-19T09:01:02.543Z,10.85
2019-02-19T09:03:36.493Z,10.11
2019-02-19T09:06:10.996Z,9.99
2019-02-19T09:08:45.635Z,9.99
2019-02-19T09:11:20.519Z,10.25
2019-02-19T09:13:56.309Z,10.36
2019-02-19T09:16:30.679Z,10.48
2019-02-19T09:19:05.416Z,10.82
2019-02-19T09:21:39.853Z,11.36
2019-02-19T09:24:14.463Z,11.52
2019-02-19T09:26:49.008Z,11.51
2019-02-19T09:29:23.336Z,11.52
2019-02-19T09:31:57.662Z,11.32
2019-02-19T09:34:31.457Z,11.87
2019-02-19T09:37:06.318Z,11.75
2019-02-19T09:39:42.027Z,11.75
2019-02-19T09:42:16.820Z,11.47
2019-02-19T09:44:51.327Z,11.74
2019-02-19T09:47:25.959Z,11.31
2019-02-19T09:50:00.376Z,11.47
2019-02-19T09:52:35.325Z,11.86
2019-02-19T09:55:10.050Z,11.86
2019-02-19T09:57:44.874Z,12.32
2019-02-19T10:00:19.562Z,12.75
2019-02-19T10:02:53.467Z,12.35
2019-02-19T10:05:27.846Z,12.35
2019-02-19T10:08:02.359Z,12.04
2019-02-19T10:10:36.994Z,12.27
2019-02-19T10:13:11.787Z,12.83
2019-02-19T10:15:46.307Z,13.55
2019-02-19T10:18:21.869Z,14.14
2019-02-19T10:20:56.299Z,14.42
2019-02-19T10:23:30.770Z,15.60
2019-02-19T10:26:05.100Z,15.92
2019-02-19T10:28:39.640Z,16.33
2019-02-19T10:31:13.267Z,16.80
2019-02-19T10:33:47.471Z,17.80
2019-02-19T10:36:24.168Z,18.68
2019-02-19T10:38:58.800Z,18.44
2019-02-19T10:41:33.337Z,18.18
2019-02-19T10:44:07.604Z,18.85
2019-02-19T10:46:42.929Z,20.16
2019-02-19T10:49:18.156Z,21.33
2019-02-19T10:51:54.924Z,20.61
2019-02-19T10:54:30.809Z,21.13
2019-02-19T10:57:07.098Z,22.14
2019-02-19T10:59:41.517Z,23.65
2019-02-19T11:02:16.669Z,24.42
2019-02-19T11:04:51.036Z,24.42
2019-02-19T11:07:30.175Z,23.56
2019-02-19T11:10:08.045Z,22.08
2019-02-19T11:12:43.139Z,20.13
2019-02-19T11:15:18.643Z,20.13
2019-02-19T11:17:53.897Z,19.59
2019-02-19T11:20:30.631Z,19.76
2019-02-19T11:23:05.018Z,20.76
2019-02-19T11:25:42.041Z,21.80
2019-02-19T11:28:18.526Z,21.90
2019-02-19T11:30:52.528Z,22.79
2019-02-19T11:33:27.304Z,22.62
2019-02-19T11:36:02.015Z,22.18
2019-02-19T11:38:36.661Z,21.76
2019-02-19T11:41:11.313Z,21.85
2019-02-19T11:43:45.847Z,20.96
2019-02-19T11:46:20.643Z,19.92
2019-02-19T11:48:56.177Z,19.87
2019-02-19T11:51:30.502Z,20.53
2019-02-19T11:54:06.667Z,21.09
2019-02-19T11:56:41.486Z,20.50
2019-02-19T11:59:16.072Z,20.18
2019-02-19T12:01:50.776Z,19.89
2019-02-19T12:04:25.319Z,19.97
2019-02-19T12:06:59.814Z,19.56
2019-02-19T12:09:34.642Z,19.66
2019-02-19T12:12:09.272Z,19.42
2019-02-19T12:14:43.667Z,19.23
2019-02-19T12:17:18.311Z,19.18
2019-02-19T12:19:52.879Z,17.48
2019-02-19T12:22:27.455Z,16.81
2019-02-19T12:25:02.478Z,17.31
2019-02-19T12:27:37.371Z,16.89
2019-02-19T12:30:13.305Z,16.58
2019-02-19T12:32:49.842Z,16.58
2019-02-19T12:35:24.327Z,16.36
2019-02-19T12:37:58.833Z,16.36
2019-02-19T12:40:33.323Z,16.37
2019-02-19T12:43:07.844Z,16.31
2019-02-19T12:45:43.317Z,16.13
2019-02-19T12:48:18.126Z,15.54
2019-02-19T12:50:52.542Z,15.76
2019-02-19T12:53:27.211Z,16.22
2019-02-19T12:56:01.668Z,16.22
2019-02-19T12:58:36.173Z,16.13
2019-02-19T13:01:10.811Z,16.05
2019-02-19T13:03:45.533Z,16.52
2019-02-19T13:06:20.596Z,16.17
2019-02-19T13:08:55.546Z,16.17
2019-02-19T13:11:30.038Z,16.27
2019-02-19T13:14:04.735Z,16.27
2019-02-19T13:16:39.429Z,15.64
2019-02-19T13:19:13.988Z,15.48
2019-02-19T13:21:48.665Z,15.48
2019-02-19T13:24:23.013Z,14.71
2019-02-19T13:26:57.587Z,14.46
2019-02-19T13:29:33.529Z,13.85
2019-02-19T13:32:07.282Z,13.50
2019-02-19T13:34:41.843Z,13.50
2019-02-19T13:37:20.357Z,13.45
2019-02-19T13:39:55.707Z,13.58
2019-02-19T13:42:30.545Z,13.03
2019-02-19T13:45:06.531Z,13.11
2019-02-19T13:47:40.357Z,12.82
2019-02-19T13:50:19.465Z,13.20
2019-02-19T13:53:02.545Z,13.40
2019-02-19T13:55:43.310Z,13.34
2019-02-19T13:58:17.900Z,13.34
2019-02-19T14:00:52.551Z,13.45
2019-02-19T14:03:26.787Z,13.11
2019-02-19T14:06:01.446Z,13.11
2019-02-19T14:08:36.164Z,12.99
2019-02-19T14:11:10.696Z,12.99
2019-02-19T14:13:56.856Z,13.38
2019-02-19T14:16:39.172Z,13.44
2019-02-19T14:19:24.649Z,13.33
2019-02-19T14:22:19.290Z,13.30
2019-02-19T14:25:13.742Z,13.32
2019-02-19T14:28:11.974Z,13.54
2019-02-19T14:31:21.569Z,13.53
2019-02-19T14:34:33.796Z,13.13
2019-02-19T14:37:36.821Z,13.13
2019-02-19T14:40:29.943Z,13.48
2019-02-19T14:43:23.007Z,13.72
2019-02-19T14:46:23.512Z,14.09
2019-02-19T14:49:13.916Z,13.65
2019-02-19T14:52:16.930Z,13.65
2019-02-19T14:55:09.928Z,13.70
2019-02-19T14:58:06.521Z,12.94
2019-02-19T15:01:03.862Z,12.81
2019-02-19T15:04:00.992Z,12.81
2019-02-19T15:06:57.915Z,12.79
2019-02-19T15:09:58.127Z,13.04
2019-02-19T15:12:53.072Z,12.99
2019-02-19T15:15:50.118Z,13.01
2019-02-19T15:18:45.739Z,13.08
2019-02-19T15:21:45.285Z,12.78
2019-02-19T15:24:39.226Z,12.91
2019-02-19T15:27:24.531Z,13.07
2019-02-19T15:30:24.687Z,13.67
2019-02-19T15:33:24.884Z,13.67
2019-02-19T15:36:24.889Z,13.70
2019-02-19T15:39:24.805Z,13.57
2019-02-19T15:42:27.858Z,13.33
2019-02-19T15:45:28.176Z,13.53
2019-02-19T15:48:21.371Z,13.56
2019-02-19T15:51:21.597Z,13.36
2019-02-19T15:54:15.646Z,13.44
2019-02-19T15:57:00.686Z,13.44
2019-02-19T15:59:53.314Z,13.52
2019-02-19T16:02:47.732Z,13.52
2019-02-19T16:05:34.083Z,13.22
2019-02-19T16:08:19.262Z,13.58
2019-02-19T16:11:15.652Z,13.50
2019-02-19T16:14:06.035Z,13.33
2019-02-19T16:16:53.918Z,13.14
2019-02-19T16:19:39.327Z,12.76
2019-02-19T16:22:36.053Z,12.63
2019-02-19T16:25:33.342Z,12.35
2019-02-19T16:28:21.861Z,12.24
2019-02-19T16:31:05.312Z,12.55
2019-02-19T16:34:08.843Z,12.72
2019-02-19T16:36:54.847Z,12.56
2019-02-19T16:39:47.885Z,12.44
2019-02-19T16:42:40.983Z,12.51
2019-02-19T16:45:35.168Z,12.41
2019-02-19T16:48:50.618Z,12.25
2019-02-19T16:51:37.472Z,11.94
2019-02-19T16:54:36.124Z,11.98
2019-02-19T16:57:32.801Z,11.98
2019-02-19T17:00:25.765Z,12.23
2019-02-19T17:03:19.813Z,12.36
2019-02-19T17:06:12.704Z,12.27
2019-02-19T17:08:54.093Z,11.89
2019-02-19T17:11:47.308Z,12.01
2019-02-19T17:14:53.861Z,12.18
2019-02-19T17:17:57.306Z,12.07
2019-02-19T17:20:57.314Z,11.83
2019-02-19T17:23:50.325Z,12.05
2019-02-19T17:26:44.998Z,12.03
2019-02-19T17:29:35.308Z,11.92
2019-02-19T17:32:28.614Z,12.14
2019-02-19T17:35:13.749Z,12.05
2019-02-19T17:38:14.855Z,12.25
2019-02-19T17:40:58.984Z,12.14
2019-02-19T17:43:39.317Z,12.19
2019-02-19T17:46:33.509Z,11.95
2019-02-19T17:49:20.708Z,11.66
2019-02-19T17:52:03.458Z,11.66
2019-02-19T17:54:43.746Z,11.61
2019-02-19T17:57:37.774Z,11.70
2019-02-19T18:00:24.939Z,11.83
2019-02-19T18:03:17.765Z,11.92
2019-02-19T18:06:20.696Z,11.83
2019-02-19T18:09:09.024Z,11.51
2019-02-19T18:11:51.973Z,11.68
2019-02-19T18:14:44.919Z,11.74
2019-02-19T18:17:43.308Z,11.53
2019-02-19T18:20:18.604Z,11.51
2019-02-19T18:22:54.072Z,11.50
2019-02-19T18:25:30.323Z,11.51
2019-02-19T18:28:05.330Z,11.30
2019-02-19T18:30:41.475Z,11.45
2019-02-19T18:33:16.797Z,11.43
2019-02-19T18:35:51.939Z,11.43
2019-02-19T18:38:27.001Z,11.43
2019-02-19T18:41:02.160Z,11.70
2019-02-19T18:43:37.483Z,11.72
2019-02-19T18:46:12.524Z,11.64
2019-02-19T18:48:47.075Z,11.84
2019-02-19T18:51:22.084Z,11.84
2019-02-19T18:53:56.847Z,11.76
2019-02-19T18:56:31.553Z,11.21
2019-02-19T18:59:06.159Z,11.34
2019-02-19T19:01:40.895Z,11.50
2019-02-19T19:04:15.582Z,11.58
2019-02-19T19:06:49.684Z,11.72
2019-02-19T19:09:24.570Z,11.59
2019-02-19T19:11:58.599Z,11.56
2019-02-19T19:14:33.983Z,11.41
2019-02-19T19:17:08.953Z,11.41
2019-02-19T19:19:43.552Z,11.19
2019-02-19T19:22:17.552Z,10.80
2019-02-19T19:24:51.531Z,10.80
2019-02-19T19:27:26.541Z,10.27
2019-02-19T19:30:01.774Z,10.27
2019-02-19T19:32:37.842Z,9.94
2019-02-19T19:35:12.770Z,9.57
2019-02-19T19:37:47.558Z,9.34
2019-02-19T19:40:21.506Z,8.96
2019-02-19T19:43:01.346Z,8.79
2019-02-19T19:45:37.826Z,8.56
2019-02-19T19:48:17.025Z,8.27
2019-02-19T19:50:55.089Z,8.12
2019-02-19T19:53:29.573Z,7.94
2019-02-19T19:56:04.933Z,7.81
2019-02-19T19:58:40.160Z,7.71
2019-02-19T20:01:14.720Z,7.58
2019-02-19T20:03:49.697Z,7.65
2019-02-19T20:06:24.646Z,7.54
2019-02-19T20:09:01.988Z,7.67
2019-02-19T20:11:47.535Z,7.71
2019-02-19T20:14:26.136Z,7.72
2019-02-19T20:17:08.467Z,7.67
2019-02-19T20:19:43.571Z,7.51
2019-02-19T20:22:19.963Z,7.51
2019-02-19T20:25:05.402Z,7.48
2019-02-19T20:27:44.674Z,7.14
2019-02-19T20:30:22.339Z,7.16
2019-02-19T20:32:59.314Z,6.86
2019-02-19T20:35:36.781Z,6.86
2019-02-19T20:38:19.051Z,6.66
2019-02-19T20:40:55.100Z,6.48
2019-02-19T20:43:30.839Z,6.16
2019-02-19T20:46:08.327Z,5.99
2019-02-19T20:48:46.701Z,6.03
2019-02-19T20:51:36.351Z,6.10
2019-02-19T20:54:12.141Z,6.17
2019-02-19T20:56:54.126Z,6.10
2019-02-19T20:59:37.327Z,6.06
2019-02-19T21:02:19.497Z,5.76
2019-02-19T21:04:53.421Z,5.55
2019-02-19T21:07:30.132Z,5.52
2019-02-19T21:10:14.553Z,5.50
2019-02-19T21:12:54.072Z,5.42
2019-02-19T21:15:32.601Z,5.29
2019-02-19T21:18:15.604Z,5.32
2019-02-19T21:20:56.499Z,5.27
2019-02-19T21:23:33.489Z,5.58
2019-02-19T21:26:09.742Z,5.38
2019-02-19T21:28:45.088Z,5.24
2019-02-19T21:31:24.631Z,5.03
2019-02-19T21:34:05.308Z,5.06
2019-02-19T21:36:42.014Z,5.21
2019-02-19T21:39:17.844Z,5.31
2019-02-19T21:41:54.831Z,5.07
2019-02-19T21:44:29.659Z,4.72
2019-02-19T21:47:04.326Z,4.55
2019-02-19T21:49:41.867Z,4.45
2019-02-19T21:52:16.471Z,4.54
2019-02-19T21:54:52.807Z,4.53
2019-02-19T21:57:27.572Z,4.71
2019-02-19T22:00:02.134Z,4.50
2019-02-19T22:02:38.719Z,4.23
2019-02-19T22:05:13.055Z,4.26
2019-02-19T22:07:48.156Z,4.12
2019-02-19T22:10:22.590Z,4.12
2019-02-19T22:12:56.282Z,4.25
2019-02-19T22:15:30.797Z,4.16
2019-02-19T22:18:05.534Z,4.19
2019-02-19T22:20:58.875Z,4.02
2019-02-19T22:23:33.451Z,3.91
2019-02-19T22:26:08.125Z,3.84
2019-02-19T22:28:46.353Z,4.04
2019-02-19T22:31:21.160Z,4.28
2019-02-19T22:33:55.611Z,4.23
2019-02-19T22:36:30.328Z,4.20
2019-02-19T22:39:06.618Z,4.32
2019-02-19T22:41:42.335Z,4.47
2019-02-19T22:44:16.811Z,4.50
2019-02-19T22:46:54.491Z,4.51
2019-02-19T22:49:28.412Z,4.52
2019-02-19T22:52:03.005Z,4.09
2019-02-19T22:55:00.038Z,4.06
2019-02-19T22:57:38.174Z,4.07
2019-02-19T23:00:38.669Z,3.93
2019-02-19T23:03:16.114Z,3.99
2019-02-19T23:05:50.915Z,3.99
2019-02-19T23:08:25.534Z,4.16
2019-02-19T23:11:00.162Z,5.01
2019-02-19T23:13:34.640Z,5.01
2019-02-19T23:16:08.285Z,5.10
2019-02-19T23:18:42.661Z,5.25
2019-02-19T23:21:19.324Z,5.42
2019-02-19T23:23:53.864Z,5.47
2019-02-19T23:26:28.606Z,5.76
2019-02-19T23:29:02.488Z,5.78
2019-02-19T23:31:38.324Z,5.95
2019-02-19T23:34:12.931Z,6.09
2019-02-19T23:37:09.530Z,6.09
2019-02-19T23:39:45.470Z,5.74
2019-02-19T23:42:19.858Z,5.77
2019-02-19T23:44:54.052Z,5.51
2019-02-19T23:47:28.661Z,5.61
2019-02-19T23:50:04.377Z,5.70
2019-02-19T23:52:39.025Z,5.33
2019-02-19T23:55:13.648Z,5.33
2019-02-19T23:57:51.383Z,4.93
